sensor_id;sensor_type;location;lat;lon;timestamp;temperature;humidity
26099;DHT22;13860;52.370;6.764;2022-12-07T00:02:08;6.40;88.50
26099;DHT22;13860;52.370;6.764;2022-12-07T00:05:11;6.40;88.50
26099;DHT22;13860;52.370;6.764;2022-12-07T00:08:15;6.40;88.50
26099;DHT22;13860;52.370;6.764;2022-12-07T00:11:23;6.30;88.40
26099;DHT22;13860;52.370;6.764;2022-12-07T00:14:27;6.30;88.40
26099;DHT22;13860;52.370;6.764;2022-12-07T00:17:30;6.30;88.50
26099;DHT22;13860;52.370;6.764;2022-12-07T00:20:35;6.20;88.40
26099;DHT22;13860;52.370;6.764;2022-12-07T00:23:39;6.20;88.40
26099;DHT22;13860;52.370;6.764;2022-12-07T00:26:45;6.20;88.50
26099;DHT22;13860;52.370;6.764;2022-12-07T00:29:49;6.10;88.40
26099;DHT22;13860;52.370;6.764;2022-12-07T00:32:53;6.10;88.40
26099;DHT22;13860;52.370;6.764;2022-12-07T00:35:57;6.10;88.50
26099;DHT22;13860;52.370;6.764;2022-12-07T00:39:01;6.00;88.40
26099;DHT22;13860;52.370;6.764;2022-12-07T00:42:07;6.00;88.40
26099;DHT22;13860;52.370;6.764;2022-12-07T00:45:10;6.00;88.40
26099;DHT22;13860;52.370;6.764;2022-12-07T00:48:14;6.00;88.50
26099;DHT22;13860;52.370;6.764;2022-12-07T00:51:20;5.90;88.40
26099;DHT22;13860;52.370;6.764;2022-12-07T00:54:24;5.90;88.40
26099;DHT22;13860;52.370;6.764;2022-12-07T00:57:30;5.90;88.40
26099;DHT22;13860;52.370;6.764;2022-12-07T01:00:36;5.80;88.40
26099;DHT22;13860;52.370;6.764;2022-12-07T01:03:40;5.80;88.40
26099;DHT22;13860;52.370;6.764;2022-12-07T01:06:44;5.70;88.30
26099;DHT22;13860;52.370;6.764;2022-12-07T01:09:47;5.70;88.40
26099;DHT22;13860;52.370;6.764;2022-12-07T01:12:53;5.70;88.40
26099;DHT22;13860;52.370;6.764;2022-12-07T01:15:59;5.60;88.40
26099;DHT22;13860;52.370;6.764;2022-12-07T01:19:03;5.60;88.50
26099;DHT22;13860;52.370;6.764;2022-12-07T01:22:07;5.60;88.40
26099;DHT22;13860;52.370;6.764;2022-12-07T01:25:11;5.60;88.40
26099;DHT22;13860;52.370;6.764;2022-12-07T01:28:16;5.50;88.40
26099;DHT22;13860;52.370;6.764;2022-12-07T01:31:21;5.50;88.40
26099;DHT22;13860;52.370;6.764;2022-12-07T01:34:25;5.50;88.40
26099;DHT22;13860;52.370;6.764;2022-12-07T01:37:34;5.40;88.40
26099;DHT22;13860;52.370;6.764;2022-12-07T01:40:38;5.40;88.40
26099;DHT22;13860;52.370;6.764;2022-12-07T01:47:17;5.40;88.40
26099;DHT22;13860;52.370;6.764;2022-12-07T01:50:22;5.40;88.40
26099;DHT22;13860;52.370;6.764;2022-12-07T01:53:29;5.30;88.40
26099;DHT22;13860;52.370;6.764;2022-12-07T01:56:34;5.30;88.40
26099;DHT22;13860;52.370;6.764;2022-12-07T01:59:38;5.30;88.40
26099;DHT22;13860;52.370;6.764;2022-12-07T02:02:46;5.30;88.50
26099;DHT22;13860;52.370;6.764;2022-12-07T02:05:53;5.30;88.50
26099;DHT22;13860;52.370;6.764;2022-12-07T02:08:57;5.20;88.40
26099;DHT22;13860;52.370;6.764;2022-12-07T02:12:01;5.20;88.50
26099;DHT22;13860;52.370;6.764;2022-12-07T02:15:06;5.20;88.50
26099;DHT22;13860;52.370;6.764;2022-12-07T02:18:17;5.20;88.50
26099;DHT22;13860;52.370;6.764;2022-12-07T02:21:30;5.20;88.50
26099;DHT22;13860;52.370;6.764;2022-12-07T02:24:48;5.10;88.50
26099;DHT22;13860;52.370;6.764;2022-12-07T02:28:00;5.10;88.50
26099;DHT22;13860;52.370;6.764;2022-12-07T02:31:13;5.10;88.50
26099;DHT22;13860;52.370;6.764;2022-12-07T02:34:37;5.10;88.50
26099;DHT22;13860;52.370;6.764;2022-12-07T02:37:53;5.10;88.50
26099;DHT22;13860;52.370;6.764;2022-12-07T02:41:05;5.10;88.50
26099;DHT22;13860;52.370;6.764;2022-12-07T02:44:13;5.00;88.40
26099;DHT22;13860;52.370;6.764;2022-12-07T02:47:21;5.00;88.50
26099;DHT22;13860;52.370;6.764;2022-12-07T02:50:27;5.00;88.50
26099;DHT22;13860;52.370;6.764;2022-12-07T02:53:34;5.00;88.50
26099;DHT22;13860;52.370;6.764;2022-12-07T02:56:43;5.00;88.60
26099;DHT22;13860;52.370;6.764;2022-12-07T02:59:59;5.00;88.60
26099;DHT22;13860;52.370;6.764;2022-12-07T03:03:10;5.00;88.60
26099;DHT22;13860;52.370;6.764;2022-12-07T03:06:19;5.00;88.60
26099;DHT22;13860;52.370;6.764;2022-12-07T03:09:29;5.00;88.60
26099;DHT22;13860;52.370;6.764;2022-12-07T03:12:39;5.00;88.60
26099;DHT22;13860;52.370;6.764;2022-12-07T03:15:49;5.00;88.60
26099;DHT22;13860;52.370;6.764;2022-12-07T03:19:03;5.00;88.60
26099;DHT22;13860;52.370;6.764;2022-12-07T03:22:11;5.00;88.70
26099;DHT22;13860;52.370;6.764;2022-12-07T03:25:17;5.10;88.70
26099;DHT22;13860;52.370;6.764;2022-12-07T03:28:23;5.00;88.70
26099;DHT22;13860;52.370;6.764;2022-12-07T03:31:31;5.10;88.80
26099;DHT22;13860;52.370;6.764;2022-12-07T03:34:42;5.00;88.70
26099;DHT22;13860;52.370;6.764;2022-12-07T03:37:50;5.10;88.70
26099;DHT22;13860;52.370;6.764;2022-12-07T03:40:59;5.10;88.70
26099;DHT22;13860;52.370;6.764;2022-12-07T03:44:04;5.00;88.60
26099;DHT22;13860;52.370;6.764;2022-12-07T03:47:13;5.10;88.60
26099;DHT22;13860;52.370;6.764;2022-12-07T03:50:27;5.10;88.60
26099;DHT22;13860;52.370;6.764;2022-12-07T03:53:34;5.00;88.50
26099;DHT22;13860;52.370;6.764;2022-12-07T03:56:40;5.00;88.50
26099;DHT22;13860;52.370;6.764;2022-12-07T03:59:45;5.00;88.60
26099;DHT22;13860;52.370;6.764;2022-12-07T04:02:51;5.00;88.60
26099;DHT22;13860;52.370;6.764;2022-12-07T04:05:57;5.00;88.60
26099;DHT22;13860;52.370;6.764;2022-12-07T04:09:02;5.00;88.60
26099;DHT22;13860;52.370;6.764;2022-12-07T04:12:06;5.00;88.60
26099;DHT22;13860;52.370;6.764;2022-12-07T04:15:10;5.00;88.60
26099;DHT22;13860;52.370;6.764;2022-12-07T04:18:14;5.00;88.60
26099;DHT22;13860;52.370;6.764;2022-12-07T04:21:20;5.00;88.60
26099;DHT22;13860;52.370;6.764;2022-12-07T04:24:24;5.00;89.20
26099;DHT22;13860;52.370;6.764;2022-12-07T04:27:27;5.00;88.60
26099;DHT22;13860;52.370;6.764;2022-12-07T04:30:31;5.10;88.70
26099;DHT22;13860;52.370;6.764;2022-12-07T04:33:35;5.00;88.60
26099;DHT22;13860;52.370;6.764;2022-12-07T04:36:42;5.00;88.60
26099;DHT22;13860;52.370;6.764;2022-12-07T04:39:45;5.00;88.50
26099;DHT22;13860;52.370;6.764;2022-12-07T04:42:49;5.00;88.60
26099;DHT22;13860;52.370;6.764;2022-12-07T04:45:53;5.00;88.60
26099;DHT22;13860;52.370;6.764;2022-12-07T04:48:57;5.00;88.60
26099;DHT22;13860;52.370;6.764;2022-12-07T04:52:03;5.10;88.50
26099;DHT22;13860;52.370;6.764;2022-12-07T04:55:07;5.10;88.60
26099;DHT22;13860;52.370;6.764;2022-12-07T04:58:11;5.10;88.60
26099;DHT22;13860;52.370;6.764;2022-12-07T05:01:16;5.00;88.50
26099;DHT22;13860;52.370;6.764;2022-12-07T05:04:20;5.00;88.50
26099;DHT22;13860;52.370;6.764;2022-12-07T05:07:26;5.00;88.40
26099;DHT22;13860;52.370;6.764;2022-12-07T05:10:30;5.00;88.40
26099;DHT22;13860;52.370;6.764;2022-12-07T05:13:34;5.00;88.50
26099;DHT22;13860;52.370;6.764;2022-12-07T05:16:39;5.00;88.50
26099;DHT22;13860;52.370;6.764;2022-12-07T05:19:43;4.90;88.40
26099;DHT22;13860;52.370;6.764;2022-12-07T05:22:48;4.90;88.40
26099;DHT22;13860;52.370;6.764;2022-12-07T05:25:52;4.90;88.50
26099;DHT22;13860;52.370;6.764;2022-12-07T05:28:56;4.90;88.50
26099;DHT22;13860;52.370;6.764;2022-12-07T05:32:00;4.90;88.50
26099;DHT22;13860;52.370;6.764;2022-12-07T05:35:04;4.90;88.40
26099;DHT22;13860;52.370;6.764;2022-12-07T05:38:10;4.90;88.40
26099;DHT22;13860;52.370;6.764;2022-12-07T05:41:16;4.80;88.40
26099;DHT22;13860;52.370;6.764;2022-12-07T05:44:33;4.80;89.00
26099;DHT22;13860;52.370;6.764;2022-12-07T05:47:37;4.80;88.40
26099;DHT22;13860;52.370;6.764;2022-12-07T05:50:41;4.80;88.50
26099;DHT22;13860;52.370;6.764;2022-12-07T05:53:48;4.80;88.40
26099;DHT22;13860;52.370;6.764;2022-12-07T05:56:51;4.80;88.40
26099;DHT22;13860;52.370;6.764;2022-12-07T05:59:55;4.70;88.50
26099;DHT22;13860;52.370;6.764;2022-12-07T06:03:00;4.70;88.40
26099;DHT22;13860;52.370;6.764;2022-12-07T06:06:04;4.70;88.40
26099;DHT22;13860;52.370;6.764;2022-12-07T06:09:10;4.70;88.40
26099;DHT22;13860;52.370;6.764;2022-12-07T06:12:15;4.70;88.50
26099;DHT22;13860;52.370;6.764;2022-12-07T06:15:32;4.70;88.50
26099;DHT22;13860;52.370;6.764;2022-12-07T06:18:35;4.70;88.50
26099;DHT22;13860;52.370;6.764;2022-12-07T06:21:40;4.60;88.40
26099;DHT22;13860;52.370;6.764;2022-12-07T06:24:46;4.70;88.40
26099;DHT22;13860;52.370;6.764;2022-12-07T06:27:49;4.60;88.40
26099;DHT22;13860;52.370;6.764;2022-12-07T06:30:57;4.60;88.50
26099;DHT22;13860;52.370;6.764;2022-12-07T06:34:02;4.60;88.50
26099;DHT22;13860;52.370;6.764;2022-12-07T06:37:06;4.60;88.50
26099;DHT22;13860;52.370;6.764;2022-12-07T06:40:12;4.50;88.40
26099;DHT22;13860;52.370;6.764;2022-12-07T06:43:16;4.50;88.40
26099;DHT22;13860;52.370;6.764;2022-12-07T06:46:20;4.50;88.50
26099;DHT22;13860;52.370;6.764;2022-12-07T06:49:23;4.50;88.50
26099;DHT22;13860;52.370;6.764;2022-12-07T06:52:27;4.50;88.40
26099;DHT22;13860;52.370;6.764;2022-12-07T06:55:33;4.50;88.40
26099;DHT22;13860;52.370;6.764;2022-12-07T06:58:36;4.50;88.50
26099;DHT22;13860;52.370;6.764;2022-12-07T07:01:40;4.40;88.40
26099;DHT22;13860;52.370;6.764;2022-12-07T07:04:44;4.40;88.50
26099;DHT22;13860;52.370;6.764;2022-12-07T07:07:48;4.40;88.50
26099;DHT22;13860;52.370;6.764;2022-12-07T07:11:13;4.40;88.50
26099;DHT22;13860;52.370;6.764;2022-12-07T07:14:17;4.40;88.50
26099;DHT22;13860;52.370;6.764;2022-12-07T07:17:22;4.40;88.50
26099;DHT22;13860;52.370;6.764;2022-12-07T07:20:26;4.40;88.60
26099;DHT22;13860;52.370;6.764;2022-12-07T07:23:30;4.40;88.50
26099;DHT22;13860;52.370;6.764;2022-12-07T07:26:36;4.40;88.50
26099;DHT22;13860;52.370;6.764;2022-12-07T07:29:40;4.40;89.10
26099;DHT22;13860;52.370;6.764;2022-12-07T07:32:43;4.40;88.50
26099;DHT22;13860;52.370;6.764;2022-12-07T07:35:47;4.40;88.50
26099;DHT22;13860;52.370;6.764;2022-12-07T07:38:51;4.40;88.50
26099;DHT22;13860;52.370;6.764;2022-12-07T07:41:56;4.40;88.50
26099;DHT22;13860;52.370;6.764;2022-12-07T07:45:02;4.40;88.50
26099;DHT22;13860;52.370;6.764;2022-12-07T07:48:06;4.40;88.60
26099;DHT22;13860;52.370;6.764;2022-12-07T07:51:10;4.40;88.50
26099;DHT22;13860;52.370;6.764;2022-12-07T07:54:14;4.40;88.50
26099;DHT22;13860;52.370;6.764;2022-12-07T07:57:19;4.40;88.50
26099;DHT22;13860;52.370;6.764;2022-12-07T08:00:23;4.40;88.60
26099;DHT22;13860;52.370;6.764;2022-12-07T08:03:27;4.40;88.50
26099;DHT22;13860;52.370;6.764;2022-12-07T08:06:31;4.40;88.50
26099;DHT22;13860;52.370;6.764;2022-12-07T08:09:35;4.50;88.60
26099;DHT22;13860;52.370;6.764;2022-12-07T08:12:42;4.50;88.60
26099;DHT22;13860;52.370;6.764;2022-12-07T08:16:03;4.50;88.60
26099;DHT22;13860;52.370;6.764;2022-12-07T08:19:08;4.50;88.60
26099;DHT22;13860;52.370;6.764;2022-12-07T08:22:11;4.50;88.60
26099;DHT22;13860;52.370;6.764;2022-12-07T08:25:15;4.50;88.60
26099;DHT22;13860;52.370;6.764;2022-12-07T08:28:21;4.50;88.60
26099;DHT22;13860;52.370;6.764;2022-12-07T08:31:25;4.50;88.60
26099;DHT22;13860;52.370;6.764;2022-12-07T08:34:30;4.60;88.70
26099;DHT22;13860;52.370;6.764;2022-12-07T08:37:34;4.60;88.70
26099;DHT22;13860;52.370;6.764;2022-12-07T08:40:38;4.50;88.60
26099;DHT22;13860;52.370;6.764;2022-12-07T08:43:43;4.60;88.70
26099;DHT22;13860;52.370;6.764;2022-12-07T08:46:51;4.60;88.70
26099;DHT22;13860;52.370;6.764;2022-12-07T08:49:56;4.60;88.80
26099;DHT22;13860;52.370;6.764;2022-12-07T08:53:06;4.70;88.80
26099;DHT22;13860;52.370;6.764;2022-12-07T08:56:10;4.70;88.80
26099;DHT22;13860;52.370;6.764;2022-12-07T08:59:15;4.70;88.70
26099;DHT22;13860;52.370;6.764;2022-12-07T09:02:20;4.70;88.80
26099;DHT22;13860;52.370;6.764;2022-12-07T09:05:24;4.80;88.80
26099;DHT22;13860;52.370;6.764;2022-12-07T09:08:34;4.80;88.80
26099;DHT22;13860;52.370;6.764;2022-12-07T09:11:38;4.80;88.80
26099;DHT22;13860;52.370;6.764;2022-12-07T09:14:44;4.90;88.90
26099;DHT22;13860;52.370;6.764;2022-12-07T09:17:51;4.90;88.80
26099;DHT22;13860;52.370;6.764;2022-12-07T09:20:56;4.90;88.80
26099;DHT22;13860;52.370;6.764;2022-12-07T09:24:00;5.00;88.90
26099;DHT22;13860;52.370;6.764;2022-12-07T09:27:03;5.00;88.90
26099;DHT22;13860;52.370;6.764;2022-12-07T09:30:09;5.00;88.90
26099;DHT22;13860;52.370;6.764;2022-12-07T09:33:13;5.10;88.90
26099;DHT22;13860;52.370;6.764;2022-12-07T09:36:17;5.10;88.90
26099;DHT22;13860;52.370;6.764;2022-12-07T09:39:21;5.10;88.90
26099;DHT22;13860;52.370;6.764;2022-12-07T09:42:28;5.10;88.80
26099;DHT22;13860;52.370;6.764;2022-12-07T09:45:35;5.10;88.80
26099;DHT22;13860;52.370;6.764;2022-12-07T09:48:42;5.20;88.90
26099;DHT22;13860;52.370;6.764;2022-12-07T09:51:47;5.20;88.90
26099;DHT22;13860;52.370;6.764;2022-12-07T09:54:51;5.30;89.00
26099;DHT22;13860;52.370;6.764;2022-12-07T09:57:56;5.20;89.00
26099;DHT22;13860;52.370;6.764;2022-12-07T10:01:11;5.30;89.70
26099;DHT22;13860;52.370;6.764;2022-12-07T10:04:18;5.30;89.00
26099;DHT22;13860;52.370;6.764;2022-12-07T10:07:22;5.40;89.10
26099;DHT22;13860;52.370;6.764;2022-12-07T10:10:27;5.40;89.20
26099;DHT22;13860;52.370;6.764;2022-12-07T10:13:40;5.50;89.30
26099;DHT22;13860;52.370;6.764;2022-12-07T10:16:48;5.60;89.20
26099;DHT22;13860;52.370;6.764;2022-12-07T10:19:52;5.60;89.20
26099;DHT22;13860;52.370;6.764;2022-12-07T10:23:15;5.70;89.20
26099;DHT22;13860;52.370;6.764;2022-12-07T10:26:50;5.80;89.20
26099;DHT22;13860;52.370;6.764;2022-12-07T10:29:54;5.80;89.20
26099;DHT22;13860;52.370;6.764;2022-12-07T10:33:00;5.90;89.20
26099;DHT22;13860;52.370;6.764;2022-12-07T10:36:26;5.90;89.20
26099;DHT22;13860;52.370;6.764;2022-12-07T10:39:40;6.00;89.20
26099;DHT22;13860;52.370;6.764;2022-12-07T10:43:01;6.00;89.20
26099;DHT22;13860;52.370;6.764;2022-12-07T10:50:14;6.10;89.20
26099;DHT22;13860;52.370;6.764;2022-12-07T10:53:31;6.20;89.20
26099;DHT22;13860;52.370;6.764;2022-12-07T10:56:53;6.20;89.20
26099;DHT22;13860;52.370;6.764;2022-12-07T11:00:04;6.30;89.30
26099;DHT22;13860;52.370;6.764;2022-12-07T11:03:40;6.40;89.30
26099;DHT22;13860;52.370;6.764;2022-12-07T11:06:52;6.40;89.30
26099;DHT22;13860;52.370;6.764;2022-12-07T11:10:13;6.50;89.20
26099;DHT22;13860;52.370;6.764;2022-12-07T11:13:25;6.50;89.10
26099;DHT22;13860;52.370;6.764;2022-12-07T11:16:54;6.60;89.20
26099;DHT22;13860;52.370;6.764;2022-12-07T11:20:11;6.70;89.10
26099;DHT22;13860;52.370;6.764;2022-12-07T11:23:25;6.70;89.00
26099;DHT22;13860;52.370;6.764;2022-12-07T11:26:41;6.70;88.90
26099;DHT22;13860;52.370;6.764;2022-12-07T11:30:08;6.80;88.90
26099;DHT22;13860;52.370;6.764;2022-12-07T11:33:17;6.80;88.80
26099;DHT22;13860;52.370;6.764;2022-12-07T11:36:33;6.80;88.80
26099;DHT22;13860;52.370;6.764;2022-12-07T11:39:45;6.90;88.80
26099;DHT22;13860;52.370;6.764;2022-12-07T11:42:53;6.90;88.70
26099;DHT22;13860;52.370;6.764;2022-12-07T11:46:02;6.90;88.70
26099;DHT22;13860;52.370;6.764;2022-12-07T11:49:11;6.90;88.60
26099;DHT22;13860;52.370;6.764;2022-12-07T11:52:22;7.00;88.60
26099;DHT22;13860;52.370;6.764;2022-12-07T11:55:41;7.00;88.60
26099;DHT22;13860;52.370;6.764;2022-12-07T11:58:49;7.00;88.50
26099;DHT22;13860;52.370;6.764;2022-12-07T12:01:57;7.00;88.50
26099;DHT22;13860;52.370;6.764;2022-12-07T12:05:11;7.00;88.50
26099;DHT22;13860;52.370;6.764;2022-12-07T12:08:19;7.00;88.60
26099;DHT22;13860;52.370;6.764;2022-12-07T12:15:47;7.10;88.60
26099;DHT22;13860;52.370;6.764;2022-12-07T12:19:15;7.10;88.60
26099;DHT22;13860;52.370;6.764;2022-12-07T12:22:26;7.20;88.50
26099;DHT22;13860;52.370;6.764;2022-12-07T12:25:37;7.20;88.50
26099;DHT22;13860;52.370;6.764;2022-12-07T12:28:52;7.20;88.50
26099;DHT22;13860;52.370;6.764;2022-12-07T12:32:12;7.30;88.40
26099;DHT22;13860;52.370;6.764;2022-12-07T12:35:29;7.30;88.30
26099;DHT22;13860;52.370;6.764;2022-12-07T12:38:34;7.30;88.30
26099;DHT22;13860;52.370;6.764;2022-12-07T12:42:00;7.30;88.30
26099;DHT22;13860;52.370;6.764;2022-12-07T12:45:22;7.30;88.20
26099;DHT22;13860;52.370;6.764;2022-12-07T12:48:28;7.30;88.10
26099;DHT22;13860;52.370;6.764;2022-12-07T12:51:37;7.40;88.20
26099;DHT22;13860;52.370;6.764;2022-12-07T12:54:58;7.30;88.00
26099;DHT22;13860;52.370;6.764;2022-12-07T12:58:29;7.30;87.90
26099;DHT22;13860;52.370;6.764;2022-12-07T13:01:43;7.40;87.90
26099;DHT22;13860;52.370;6.764;2022-12-07T13:04:52;7.40;87.90
26099;DHT22;13860;52.370;6.764;2022-12-07T13:08:01;7.40;87.90
26099;DHT22;13860;52.370;6.764;2022-12-07T13:11:18;7.40;87.90
26099;DHT22;13860;52.370;6.764;2022-12-07T13:14:40;7.30;87.80
26099;DHT22;13860;52.370;6.764;2022-12-07T13:18:04;7.30;87.70
26099;DHT22;13860;52.370;6.764;2022-12-07T13:21:41;7.30;87.70
26099;DHT22;13860;52.370;6.764;2022-12-07T13:24:46;7.30;87.70
26099;DHT22;13860;52.370;6.764;2022-12-07T13:27:56;7.30;87.70
26099;DHT22;13860;52.370;6.764;2022-12-07T13:31:23;7.30;87.70
26099;DHT22;13860;52.370;6.764;2022-12-07T13:34:33;7.30;87.70
26099;DHT22;13860;52.370;6.764;2022-12-07T13:37:38;7.30;87.70
26099;DHT22;13860;52.370;6.764;2022-12-07T13:40:42;7.30;87.60
26099;DHT22;13860;52.370;6.764;2022-12-07T13:43:49;7.30;87.60
26099;DHT22;13860;52.370;6.764;2022-12-07T13:46:59;7.30;87.60
26099;DHT22;13860;52.370;6.764;2022-12-07T13:50:25;7.30;87.50
26099;DHT22;13860;52.370;6.764;2022-12-07T13:53:29;7.30;87.50
26099;DHT22;13860;52.370;6.764;2022-12-07T13:56:35;7.20;87.40
26099;DHT22;13860;52.370;6.764;2022-12-07T13:59:40;7.30;87.40
26099;DHT22;13860;52.370;6.764;2022-12-07T14:02:56;7.20;87.30
26099;DHT22;13860;52.370;6.764;2022-12-07T14:06:13;7.20;87.20
26099;DHT22;13860;52.370;6.764;2022-12-07T14:09:19;7.20;87.20
26099;DHT22;13860;52.370;6.764;2022-12-07T14:12:24;7.20;87.20
26099;DHT22;13860;52.370;6.764;2022-12-07T14:15:30;7.10;87.10
26099;DHT22;13860;52.370;6.764;2022-12-07T14:18:37;7.10;87.10
26099;DHT22;13860;52.370;6.764;2022-12-07T14:21:44;7.10;87.00
26099;DHT22;13860;52.370;6.764;2022-12-07T14:24:48;7.00;87.00
26099;DHT22;13860;52.370;6.764;2022-12-07T14:27:54;7.00;87.00
26099;DHT22;13860;52.370;6.764;2022-12-07T14:31:00;7.00;87.00
26099;DHT22;13860;52.370;6.764;2022-12-07T14:34:05;7.00;87.00
26099;DHT22;13860;52.370;6.764;2022-12-07T14:37:11;6.90;86.90
26099;DHT22;13860;52.370;6.764;2022-12-07T14:40:17;6.90;86.90
26099;DHT22;13860;52.370;6.764;2022-12-07T14:43:21;6.90;86.90
26099;DHT22;13860;52.370;6.764;2022-12-07T14:46:27;6.90;86.90
26099;DHT22;13860;52.370;6.764;2022-12-07T14:49:31;6.90;86.90
26099;DHT22;13860;52.370;6.764;2022-12-07T14:52:38;6.80;86.90
26099;DHT22;13860;52.370;6.764;2022-12-07T14:56:03;6.80;86.80
26099;DHT22;13860;52.370;6.764;2022-12-07T14:59:07;6.80;86.80
26099;DHT22;13860;52.370;6.764;2022-12-07T15:02:12;6.80;86.80
26099;DHT22;13860;52.370;6.764;2022-12-07T15:05:17;6.80;86.90
26099;DHT22;13860;52.370;6.764;2022-12-07T15:08:23;6.80;86.80
26099;DHT22;13860;52.370;6.764;2022-12-07T15:11:28;6.70;86.70
26099;DHT22;13860;52.370;6.764;2022-12-07T15:14:32;6.70;86.70
26099;DHT22;13860;52.370;6.764;2022-12-07T15:17:35;6.70;86.70
26099;DHT22;13860;52.370;6.764;2022-12-07T15:20:39;6.70;86.70
26099;DHT22;13860;52.370;6.764;2022-12-07T15:23:45;6.60;86.60
26099;DHT22;13860;52.370;6.764;2022-12-07T15:26:49;6.60;86.60
26099;DHT22;13860;52.370;6.764;2022-12-07T15:29:53;6.60;86.70
26099;DHT22;13860;52.370;6.764;2022-12-07T15:32:57;6.60;86.60
26099;DHT22;13860;52.370;6.764;2022-12-07T15:36:01;6.60;86.60
26099;DHT22;13860;52.370;6.764;2022-12-07T15:39:07;6.50;86.60
26099;DHT22;13860;52.370;6.764;2022-12-07T15:42:16;6.50;86.60
26099;DHT22;13860;52.370;6.764;2022-12-07T15:45:19;6.50;86.60
26099;DHT22;13860;52.370;6.764;2022-12-07T15:48:23;6.50;86.60
26099;DHT22;13860;52.370;6.764;2022-12-07T15:51:29;6.50;86.70
26099;DHT22;13860;52.370;6.764;2022-12-07T15:54:35;6.50;86.60
26099;DHT22;13860;52.370;6.764;2022-12-07T15:57:39;6.40;86.60
26099;DHT22;13860;52.370;6.764;2022-12-07T16:00:43;6.40;86.60
26099;DHT22;13860;52.370;6.764;2022-12-07T16:03:47;6.40;86.60
26099;DHT22;13860;52.370;6.764;2022-12-07T16:06:51;6.40;86.60
26099;DHT22;13860;52.370;6.764;2022-12-07T16:09:56;6.40;86.60
26099;DHT22;13860;52.370;6.764;2022-12-07T16:13:00;6.30;86.50
26099;DHT22;13860;52.370;6.764;2022-12-07T16:16:06;6.30;86.50
26099;DHT22;13860;52.370;6.764;2022-12-07T16:19:10;6.30;86.60
26099;DHT22;13860;52.370;6.764;2022-12-07T16:22:14;6.30;86.50
26099;DHT22;13860;52.370;6.764;2022-12-07T16:25:20;6.20;86.50
26099;DHT22;13860;52.370;6.764;2022-12-07T16:28:24;6.20;86.60
26099;DHT22;13860;52.370;6.764;2022-12-07T16:31:28;6.20;86.50
26099;DHT22;13860;52.370;6.764;2022-12-07T16:34:32;6.20;86.50
26099;DHT22;13860;52.370;6.764;2022-12-07T16:37:35;6.20;86.50
26099;DHT22;13860;52.370;6.764;2022-12-07T16:40:41;6.20;86.50
26099;DHT22;13860;52.370;6.764;2022-12-07T16:43:45;6.20;86.60
26099;DHT22;13860;52.370;6.764;2022-12-07T16:46:49;6.20;86.60
26099;DHT22;13860;52.370;6.764;2022-12-07T16:49:53;6.10;86.50
26099;DHT22;13860;52.370;6.764;2022-12-07T16:52:59;6.10;86.60
26099;DHT22;13860;52.370;6.764;2022-12-07T16:56:09;6.10;86.50
26099;DHT22;13860;52.370;6.764;2022-12-07T16:59:13;6.10;86.50
26099;DHT22;13860;52.370;6.764;2022-12-07T17:02:18;6.10;86.50
26099;DHT22;13860;52.370;6.764;2022-12-07T17:05:22;6.10;86.50
26099;DHT22;13860;52.370;6.764;2022-12-07T17:08:26;6.10;86.50
26099;DHT22;13860;52.370;6.764;2022-12-07T17:11:31;6.10;86.50
26099;DHT22;13860;52.370;6.764;2022-12-07T17:14:35;6.10;87.20
26099;DHT22;13860;52.370;6.764;2022-12-07T17:17:54;6.10;86.50
26099;DHT22;13860;52.370;6.764;2022-12-07T17:21:02;6.10;86.50
26099;DHT22;13860;52.370;6.764;2022-12-07T17:24:09;6.10;86.50
26099;DHT22;13860;52.370;6.764;2022-12-07T17:27:15;6.10;86.50
26099;DHT22;13860;52.370;6.764;2022-12-07T17:30:19;6.10;86.50
26099;DHT22;13860;52.370;6.764;2022-12-07T17:33:23;6.10;86.50
26099;DHT22;13860;52.370;6.764;2022-12-07T17:36:29;6.10;86.40
26099;DHT22;13860;52.370;6.764;2022-12-07T17:39:32;6.00;86.50
26099;DHT22;13860;52.370;6.764;2022-12-07T17:42:38;6.00;86.40
26099;DHT22;13860;52.370;6.764;2022-12-07T17:45:46;6.00;86.40
26099;DHT22;13860;52.370;6.764;2022-12-07T17:48:52;6.00;86.40
26099;DHT22;13860;52.370;6.764;2022-12-07T17:51:56;6.00;86.40
26099;DHT22;13860;52.370;6.764;2022-12-07T17:55:13;6.00;86.40
26099;DHT22;13860;52.370;6.764;2022-12-07T17:58:19;5.90;86.50
26099;DHT22;13860;52.370;6.764;2022-12-07T18:01:23;5.90;86.50
26099;DHT22;13860;52.370;6.764;2022-12-07T18:04:35;5.90;86.50
26099;DHT22;13860;52.370;6.764;2022-12-07T18:07:39;5.90;86.60
26099;DHT22;13860;52.370;6.764;2022-12-07T18:10:45;5.80;86.50
26099;DHT22;13860;52.370;6.764;2022-12-07T18:13:51;5.80;86.50
26099;DHT22;13860;52.370;6.764;2022-12-07T18:16:54;5.80;86.50
26099;DHT22;13860;52.370;6.764;2022-12-07T18:19:59;5.80;86.50
26099;DHT22;13860;52.370;6.764;2022-12-07T18:23:02;5.80;86.60
26099;DHT22;13860;52.370;6.764;2022-12-07T18:26:06;5.80;86.50
26099;DHT22;13860;52.370;6.764;2022-12-07T18:29:14;5.80;86.60
26099;DHT22;13860;52.370;6.764;2022-12-07T18:32:19;5.80;86.60
26099;DHT22;13860;52.370;6.764;2022-12-07T18:35:23;5.70;86.50
26099;DHT22;13860;52.370;6.764;2022-12-07T18:38:27;5.80;87.20
26099;DHT22;13860;52.370;6.764;2022-12-07T18:41:31;5.70;86.50
26099;DHT22;13860;52.370;6.764;2022-12-07T18:44:37;5.70;86.60
26099;DHT22;13860;52.370;6.764;2022-12-07T18:47:41;5.70;87.10
26099;DHT22;13860;52.370;6.764;2022-12-07T18:50:46;5.70;86.60
26099;DHT22;13860;52.370;6.764;2022-12-07T18:53:50;5.70;86.50
26099;DHT22;13860;52.370;6.764;2022-12-07T18:56:54;5.70;86.50
26099;DHT22;13860;52.370;6.764;2022-12-07T19:00:01;5.70;86.50
26099;DHT22;13860;52.370;6.764;2022-12-07T19:03:05;5.60;86.50
26099;DHT22;13860;52.370;6.764;2022-12-07T19:06:09;5.60;86.50
26099;DHT22;13860;52.370;6.764;2022-12-07T19:09:12;5.60;86.50
26099;DHT22;13860;52.370;6.764;2022-12-07T19:12:16;5.60;86.50
26099;DHT22;13860;52.370;6.764;2022-12-07T19:15:22;5.60;86.40
26099;DHT22;13860;52.370;6.764;2022-12-07T19:18:26;5.50;86.40
26099;DHT22;13860;52.370;6.764;2022-12-07T19:21:30;5.50;86.40
26099;DHT22;13860;52.370;6.764;2022-12-07T19:24:34;5.50;86.50
26099;DHT22;13860;52.370;6.764;2022-12-07T19:27:38;5.50;86.50
26099;DHT22;13860;52.370;6.764;2022-12-07T19:30:44;5.50;86.50
26099;DHT22;13860;52.370;6.764;2022-12-07T19:33:48;5.50;86.50
26099;DHT22;13860;52.370;6.764;2022-12-07T19:36:52;5.40;86.40
26099;DHT22;13860;52.370;6.764;2022-12-07T19:39:56;5.40;86.40
26099;DHT22;13860;52.370;6.764;2022-12-07T19:42:59;5.40;86.40
26099;DHT22;13860;52.370;6.764;2022-12-07T19:46:06;5.40;86.40
26099;DHT22;13860;52.370;6.764;2022-12-07T19:49:10;5.40;86.50
26099;DHT22;13860;52.370;6.764;2022-12-07T19:52:16;5.30;86.50
26099;DHT22;13860;52.370;6.764;2022-12-07T19:55:20;5.30;86.50
26099;DHT22;13860;52.370;6.764;2022-12-07T19:58:24;5.30;86.60
26099;DHT22;13860;52.370;6.764;2022-12-07T20:01:29;5.30;86.50
26099;DHT22;13860;52.370;6.764;2022-12-07T20:04:33;5.30;86.50
26099;DHT22;13860;52.370;6.764;2022-12-07T20:07:37;5.20;86.50
26099;DHT22;13860;52.370;6.764;2022-12-07T20:10:42;5.30;86.60
26099;DHT22;13860;52.370;6.764;2022-12-07T20:13:45;5.20;86.60